createdAt,value
2023-02-01T00:04:14.475Z,-1.14
2023-02-01T00:09:17.989Z,-1.16
2023-02-01T00:14:21.411Z,-1.15
2023-02-01T00:19:26.202Z,-1.15
2023-02-01T00:24:29.706Z,-1.15
2023-02-01T00:29:33.167Z,-1.15
2023-02-01T00:34:38.091Z,-1.14
2023-02-01T00:39:41.445Z,-1.15
2023-02-01T00:44:45.059Z,-1.14
2023-02-01T00:49:49.921Z,-1.15
2023-02-01T00:54:53.301Z,-1.13
2023-02-01T00:59:56.604Z,-1.15
2023-02-01T01:05:01.277Z,-1.14
2023-02-01T01:10:05.500Z,-1.13
2023-02-01T01:15:10.156Z,-1.12
2023-02-01T01:20:15.363Z,-1.13
2023-02-01T01:25:18.983Z,-1.14
2023-02-01T01:30:22.951Z,-1.11
2023-02-01T01:35:28.090Z,-1.10
2023-02-01T01:40:32.823Z,-1.19
2023-02-01T01:45:37.244Z,-1.13
2023-02-01T01:50:49.331Z,-1.16
2023-02-01T01:55:55.618Z,-1.19
2023-02-01T02:00:59.286Z,-1.18
2023-02-01T02:06:08.872Z,-1.40
2023-02-01T02:11:16.974Z,-1.16
2023-02-01T02:16:39.444Z,-1.17
2023-02-01T02:22:01.897Z,-1.15
2023-02-01T02:27:36.618Z,-1.14
2023-02-01T02:32:59.979Z,-1.28
2023-02-01T02:38:15.592Z,-1.14
2023-02-01T02:43:41.967Z,-1.14
2023-02-01T02:48:48.678Z,-1.16
2023-02-01T02:54:16.380Z,-1.13
2023-02-01T02:59:42.035Z,-1.15
2023-02-01T03:04:45.480Z,-1.16
2023-02-01T03:09:52.152Z,-1.20
2023-02-01T03:15:00.218Z,-1.19
2023-02-01T03:20:06.148Z,-1.17
2023-02-01T03:25:14.777Z,-1.21
2023-02-01T03:30:23.399Z,-1.32
2023-02-01T03:35:38.978Z,-1.14
2023-02-01T03:40:47.650Z,-1.13
2023-02-01T03:45:55.356Z,-1.12
2023-02-01T03:51:03.236Z,-1.14
2023-02-01T03:56:09.310Z,-1.15
2023-02-01T04:01:12.801Z,-1.16
2023-02-01T04:06:16.246Z,-1.18
2023-02-01T04:11:21.083Z,-1.19
2023-02-01T04:16:24.473Z,-1.19
2023-02-01T04:21:28.199Z,-1.18
2023-02-01T04:26:33.123Z,-1.20
2023-02-01T04:31:37.665Z,-1.20
2023-02-01T04:36:41.109Z,-1.20
2023-02-01T04:41:46.175Z,-1.19
2023-02-01T04:46:49.685Z,-1.22
2023-02-01T04:51:52.951Z,-1.24
2023-02-01T04:56:57.748Z,-1.24
2023-02-01T05:02:01.153Z,-1.24
2023-02-01T05:07:04.873Z,-1.21
2023-02-01T05:12:29.285Z,-1.22
2023-02-01T05:17:32.663Z,-1.20
2023-02-01T05:22:36.110Z,-1.19
2023-02-01T05:27:40.776Z,-1.19
2023-02-01T05:32:44.080Z,-1.22
2023-02-01T05:37:47.797Z,-1.22
2023-02-01T05:42:52.807Z,-1.21
2023-02-01T05:47:56.231Z,-1.21
2023-02-01T05:52:59.797Z,-1.18
2023-02-01T05:58:04.550Z,-1.17
2023-02-01T06:03:07.863Z,-1.15
2023-02-01T06:08:11.386Z,-1.09
2023-02-01T06:13:16.057Z,-1.08
2023-02-01T06:18:19.335Z,-1.07
2023-02-01T06:23:25.070Z,-1.03
2023-02-01T06:28:30.370Z,-1.00
2023-02-01T06:33:33.811Z,-0.95
2023-02-01T06:38:37.661Z,-0.99
2023-02-01T06:43:42.472Z,-0.88
2023-02-01T06:48:47.128Z,-0.83
2023-02-01T06:53:51.782Z,-0.79
2023-02-01T06:58:56.415Z,-0.73
2023-02-01T07:03:59.702Z,-0.68
2023-02-01T07:09:03.171Z,-0.57
2023-02-01T07:14:08.004Z,-0.57
2023-02-01T07:19:11.453Z,-0.57
2023-02-01T07:24:15.707Z,-0.53
2023-02-01T07:29:20.650Z,-0.41
2023-02-01T07:34:24.036Z,-0.31
2023-02-01T07:39:29.239Z,-0.24
2023-02-01T07:44:34.006Z,-0.27
2023-02-01T07:49:37.616Z,-0.27
2023-02-01T07:54:41.201Z,-0.23
2023-02-01T07:59:59.747Z,-0.24
2023-02-01T08:05:03.291Z,-0.15
2023-02-01T08:10:11.766Z,-0.10
2023-02-01T08:15:17.467Z,-0.04
2023-02-01T08:20:23.304Z,-0.02
2023-02-01T08:25:26.879Z,-0.17
2023-02-01T08:30:31.678Z,-0.24
2023-02-01T08:35:43.352Z,-0.22
2023-02-01T08:40:49.695Z,-0.11
2023-02-01T08:45:57.352Z,-0.05
2023-02-01T08:51:04.359Z,-0.12
2023-02-01T08:56:08.557Z,-0.16
2023-02-01T09:01:15.154Z,-0.25
2023-02-01T09:06:18.689Z,-0.26
2023-02-01T09:11:22.014Z,-0.21
2023-02-01T09:16:27.014Z,-0.14
2023-02-01T09:21:30.694Z,-0.11
2023-02-01T09:26:34.043Z,-0.10
2023-02-01T09:31:41.951Z,-0.05
2023-02-01T09:36:47.435Z,0.16
2023-02-01T09:42:00.605Z,0.29
2023-02-01T09:47:05.475Z,0.38
2023-02-01T09:52:10.692Z,0.37
2023-02-01T09:57:21.799Z,0.39
2023-02-01T10:02:29.617Z,0.44
2023-02-01T10:07:44.075Z,0.55
2023-02-01T10:13:04.656Z,0.62
2023-02-01T10:18:37.465Z,0.55
2023-02-01T10:24:17.304Z,0.55
2023-02-01T10:29:24.565Z,0.68
2023-02-01T10:34:30.261Z,0.64
2023-02-01T10:39:35.160Z,0.55
2023-02-01T10:44:44.097Z,0.36
2023-02-01T10:49:55.363Z,0.01
2023-02-01T10:55:30.551Z,0.21
2023-02-01T11:00:44.458Z,0.25
2023-02-01T11:05:48.961Z,0.29
2023-02-01T11:11:00.742Z,0.12
2023-02-01T11:16:06.446Z,-0.03
2023-02-01T11:21:11.907Z,-0.07
2023-02-01T11:26:24.803Z,-0.09
2023-02-01T11:31:29.773Z,-0.31
2023-02-01T11:36:34.853Z,-0.09
2023-02-01T11:41:46.622Z,-0.10
2023-02-01T11:46:49.977Z,-0.15
2023-02-01T11:52:06.059Z,-0.22
2023-02-01T11:57:26.808Z,-0.31
2023-02-01T12:03:01.208Z,-0.45
2023-02-01T12:08:19.287Z,-0.51
2023-02-01T12:13:39.457Z,-0.49
2023-02-01T12:19:11.815Z,-0.51
2023-02-01T12:24:47.113Z,-0.49
2023-02-01T12:30:09.975Z,-0.34
2023-02-01T12:35:24.705Z,-0.28
2023-02-01T12:40:41.113Z,-0.29
2023-02-01T12:45:50.538Z,-0.34
2023-02-01T12:51:00.281Z,-0.38
2023-02-01T12:56:08.278Z,-0.40
2023-02-01T13:01:18.247Z,-0.44
2023-02-01T13:06:27.405Z,-0.48
2023-02-01T13:11:33.821Z,-0.54
2023-02-01T13:16:45.414Z,-0.75
2023-02-01T13:21:52.358Z,-0.65
2023-02-01T13:26:57.017Z,-0.69
2023-02-01T13:33:51.027Z,-0.77
2023-02-01T13:38:17.743Z,-0.83
2023-02-01T13:43:28.488Z,-0.92
2023-02-01T13:48:40.860Z,-1.11
2023-02-01T13:53:48.359Z,-1.00
2023-02-01T13:58:52.542Z,-1.03
2023-02-01T14:03:58.707Z,-1.12
2023-02-01T14:09:35.027Z,-1.14
2023-02-01T14:14:42.868Z,-1.16
2023-02-01T14:19:48.171Z,-1.18
2023-02-01T14:24:55.123Z,-1.32
2023-02-01T14:30:02.193Z,-1.19
2023-02-01T14:35:19.777Z,-1.25
2023-02-01T14:40:27.434Z,-1.22
2023-02-01T14:45:53.030Z,-1.23
2023-02-01T14:51:00.236Z,-1.22
2023-02-01T14:56:10.735Z,-1.34
2023-02-01T15:01:22.934Z,-1.18
2023-02-01T15:06:33.248Z,-1.16
2023-02-01T15:11:56.910Z,-1.18
2023-02-01T15:16:59.942Z,-1.22
2023-02-01T15:22:04.774Z,-1.26
2023-02-01T15:27:08.671Z,-1.27
2023-02-01T15:32:32.747Z,-1.34
2023-02-01T15:37:37.655Z,-1.29
2023-02-01T15:42:53.716Z,-1.29
2023-02-01T15:47:59.798Z,-1.28
2023-02-01T15:53:06.195Z,-1.29
2023-02-01T15:58:10.399Z,-1.33
2023-02-01T16:03:28.481Z,-1.38
2023-02-01T16:08:35.730Z,-1.40
2023-02-01T16:13:39.230Z,-1.38
2023-02-01T16:18:42.709Z,-1.37
2023-02-01T16:23:51.264Z,-1.39
2023-02-01T16:28:54.711Z,-1.41
2023-02-01T16:33:58.124Z,-1.41
2023-02-01T16:39:04.022Z,-1.40
2023-02-01T16:44:08.061Z,-1.40
2023-02-01T16:49:20.974Z,-1.54
2023-02-01T16:54:25.711Z,-1.39
2023-02-01T16:59:28.968Z,-1.41
2023-02-01T17:04:32.419Z,-1.42
2023-02-01T17:09:37.766Z,-1.43
2023-02-01T17:14:42.860Z,-1.46
2023-02-01T17:19:48.761Z,-1.47
2023-02-01T17:24:53.459Z,-1.48
2023-02-01T17:29:57.306Z,-1.48
2023-02-01T17:35:00.576Z,-1.47
2023-02-01T17:40:06.858Z,-1.44
2023-02-01T17:45:23.178Z,-1.61
2023-02-01T17:50:29.597Z,-1.50
2023-02-01T17:55:37.140Z,-1.53
2023-02-01T18:00:40.706Z,-1.58
2023-02-01T18:05:51.061Z,-1.57
2023-02-01T18:11:00.019Z,-1.55
2023-02-01T18:16:04.691Z,-1.54
2023-02-01T18:21:08.283Z,-1.56
2023-02-01T18:26:14.709Z,-1.61
2023-02-01T18:31:24.063Z,-1.70
2023-02-01T18:36:30.649Z,-1.70
2023-02-01T18:41:35.497Z,-1.75
2023-02-01T18:46:38.793Z,-1.79
2023-02-01T18:51:43.392Z,-1.81
2023-02-01T18:56:48.059Z,-1.84
2023-02-01T19:01:51.548Z,-1.87
2023-02-01T19:06:55.127Z,-1.87
2023-02-01T19:11:59.973Z,-1.89
2023-02-01T19:17:03.255Z,-1.92
2023-02-01T19:22:06.562Z,-1.99
2023-02-01T19:27:11.336Z,-2.03
2023-02-01T19:32:15.080Z,-2.06
2023-02-01T19:37:19.900Z,-2.12
2023-02-01T19:42:26.152Z,-2.13
2023-02-01T19:47:29.441Z,-2.15
2023-02-01T19:52:32.851Z,-2.14
2023-02-01T19:57:38.057Z,-2.14
2023-02-01T20:02:40.754Z,-2.13
2023-02-01T20:07:44.307Z,-2.11
2023-02-01T20:12:50.884Z,-2.07
2023-02-01T20:17:54.273Z,-2.00
2023-02-01T20:22:57.697Z,-1.96
2023-02-01T20:28:03.194Z,-1.98
2023-02-01T20:33:06.638Z,-2.01
2023-02-01T20:38:10.292Z,-2.01
2023-02-01T20:43:15.160Z,-2.01
2023-02-01T20:48:18.642Z,-2.01
2023-02-01T20:53:26.540Z,-2.01
2023-02-01T20:58:31.888Z,-2.01
2023-02-01T21:03:38.378Z,-2.04
2023-02-01T21:08:42.478Z,-2.19
2023-02-01T21:13:51.652Z,-2.08
2023-02-01T21:18:55.250Z,-2.09
2023-02-01T21:23:59.144Z,-2.14
2023-02-01T21:29:03.885Z,-2.18
2023-02-01T21:34:08.019Z,-2.20
2023-02-01T21:39:12.454Z,-2.22
2023-02-01T21:44:17.601Z,-2.34
2023-02-01T21:49:21.094Z,-2.19
2023-02-01T21:54:25.872Z,-2.19
2023-02-01T21:59:30.512Z,-2.19
2023-02-01T22:04:33.796Z,-2.17
2023-02-01T22:09:37.486Z,-2.17
2023-02-01T22:14:44.882Z,-2.20
2023-02-01T22:19:48.122Z,-2.16
2023-02-01T22:24:51.442Z,-2.14
2023-02-01T22:29:57.161Z,-2.15
2023-02-01T22:35:00.610Z,-2.15
2023-02-01T22:40:04.843Z,-2.11
2023-02-01T22:45:10.716Z,-2.12
2023-02-01T22:50:14.053Z,-2.13
2023-02-01T22:55:17.429Z,-2.15
2023-02-01T23:00:25.257Z,-2.14
2023-02-01T23:05:28.552Z,-2.13
2023-02-01T23:10:32.045Z,-2.15
2023-02-01T23:15:40.062Z,-2.14
2023-02-01T23:20:43.361Z,-2.15
2023-02-01T23:25:51.391Z,-2.15
2023-02-01T23:30:56.565Z,-2.15
2023-02-01T23:36:02.170Z,-2.16
2023-02-01T23:41:07.239Z,-2.26
2023-02-01T23:46:12.728Z,-2.43
2023-02-01T23:51:16.749Z,-2.51
2023-02-01T23:56:23.100Z,-2.65
